createdAt,value
2022-10-31T00:00:54.541Z,17.75
2022-10-31T00:03:23.201Z,17.72
2022-10-31T00:05:52.480Z,17.72
2022-10-31T00:08:21.170Z,17.72
2022-10-31T00:10:49.267Z,17.77
2022-10-31T00:13:18.807Z,17.74
2022-10-31T00:15:46.867Z,17.77
2022-10-31T00:18:15.041Z,17.78
2022-10-31T00:20:43.531Z,17.77
2022-10-31T00:23:13.105Z,17.75
2022-10-31T00:25:42.545Z,17.76
2022-10-31T00:28:13.972Z,17.78
2022-10-31T00:30:43.699Z,17.77
2022-10-31T00:33:11.700Z,17.71
2022-10-31T00:35:39.792Z,17.77
2022-10-31T00:38:07.807Z,17.74
2022-10-31T00:40:36.294Z,17.78
2022-10-31T00:43:04.812Z,17.83
2022-10-31T00:45:33.110Z,17.89
2022-10-31T00:48:03.031Z,17.95
2022-10-31T00:50:31.305Z,17.98
2022-10-31T00:52:59.710Z,18.02
2022-10-31T00:55:28.242Z,18.05
2022-10-31T00:57:56.493Z,18.04
2022-10-31T01:00:24.746Z,18.04
2022-10-31T01:02:52.774Z,18.01
2022-10-31T01:05:22.688Z,18.01
2022-10-31T01:07:50.770Z,18.00
2022-10-31T01:10:20.313Z,17.97
2022-10-31T01:12:50.584Z,17.95
2022-10-31T01:15:22.399Z,17.94
2022-10-31T01:17:51.165Z,17.91
2022-10-31T01:20:19.942Z,17.90
2022-10-31T01:22:49.574Z,17.92
2022-10-31T01:25:17.803Z,17.96
2022-10-31T01:27:45.932Z,17.97
2022-10-31T01:30:14.952Z,17.99
2022-10-31T01:32:43.007Z,17.99
2022-10-31T01:35:11.141Z,17.98
2022-10-31T01:37:39.303Z,17.96
2022-10-31T01:40:10.485Z,17.97
2022-10-31T01:42:38.670Z,17.92
2022-10-31T01:45:08.177Z,17.89
2022-10-31T01:47:44.217Z,17.90
2022-10-31T01:50:25.655Z,17.88
2022-10-31T01:52:55.367Z,17.84
2022-10-31T01:55:31.045Z,17.81
2022-10-31T01:58:02.805Z,17.81
2022-10-31T02:00:33.097Z,17.82
2022-10-31T02:03:02.163Z,17.78
2022-10-31T02:05:32.663Z,17.77
2022-10-31T02:08:05.568Z,17.74
2022-10-31T02:10:38.038Z,17.71
2022-10-31T02:13:09.476Z,17.72
2022-10-31T02:15:39.053Z,17.69
2022-10-31T02:18:09.363Z,17.69
2022-10-31T02:20:47.826Z,17.66
2022-10-31T02:23:54.787Z,17.64
2022-10-31T02:26:44.000Z,17.60
2022-10-31T02:29:48.360Z,17.61
2022-10-31T02:32:22.779Z,17.64
2022-10-31T02:34:59.658Z,17.68
2022-10-31T02:37:37.219Z,17.75
2022-10-31T02:40:13.003Z,17.78
2022-10-31T02:42:49.392Z,17.79
2022-10-31T02:45:24.909Z,17.76
2022-10-31T02:47:59.157Z,17.73
2022-10-31T02:50:34.047Z,17.75
2022-10-31T02:53:03.673Z,17.71
2022-10-31T02:56:04.130Z,17.69
2022-10-31T02:58:35.249Z,17.73
2022-10-31T03:01:41.372Z,17.75
2022-10-31T03:04:36.515Z,17.84
2022-10-31T03:07:13.252Z,17.88
2022-10-31T03:09:55.025Z,17.90
2022-10-31T03:12:30.159Z,18.00
2022-10-31T03:15:08.407Z,18.02
2022-10-31T03:17:39.461Z,18.11
2022-10-31T03:20:12.736Z,18.16
2022-10-31T03:22:43.499Z,18.22
2022-10-31T03:25:14.447Z,18.27
2022-10-31T03:27:46.463Z,18.31
2022-10-31T03:30:15.994Z,18.32
2022-10-31T03:32:47.211Z,18.36
2022-10-31T03:35:21.785Z,18.43
2022-10-31T03:37:51.917Z,18.48
2022-10-31T03:40:23.064Z,18.51
2022-10-31T03:42:58.433Z,18.55
2022-10-31T03:45:29.633Z,18.60
2022-10-31T03:48:00.534Z,18.62
2022-10-31T03:50:36.699Z,18.64
2022-10-31T03:53:08.852Z,18.63
2022-10-31T03:55:43.977Z,18.66
2022-10-31T04:00:51.565Z,18.69
2022-10-31T04:03:25.443Z,18.72
2022-10-31T04:05:59.712Z,18.70
2022-10-31T04:08:32.678Z,18.69
2022-10-31T04:11:04.196Z,18.72
2022-10-31T04:13:36.480Z,18.71
2022-10-31T04:16:06.574Z,18.70
2022-10-31T04:18:35.108Z,18.68
2022-10-31T04:21:07.647Z,18.70
2022-10-31T04:23:36.862Z,18.66
2022-10-31T04:26:06.116Z,18.67
2022-10-31T04:28:34.972Z,18.67
2022-10-31T04:31:03.081Z,18.65
2022-10-31T04:33:32.838Z,18.66
2022-10-31T04:36:00.893Z,18.62
2022-10-31T04:38:30.433Z,18.62
2022-10-31T04:40:58.919Z,18.61
2022-10-31T04:43:27.117Z,18.63
2022-10-31T04:45:55.261Z,18.62
2022-10-31T04:48:23.351Z,18.67
2022-10-31T04:50:51.573Z,18.68
2022-10-31T04:53:19.760Z,18.66
2022-10-31T04:55:49.712Z,18.67
2022-10-31T05:00:45.939Z,18.70
2022-10-31T05:03:14.400Z,18.62
2022-10-31T05:05:43.936Z,18.58
2022-10-31T05:08:12.367Z,18.52
2022-10-31T05:10:40.560Z,18.51
2022-10-31T05:13:10.569Z,18.43
2022-10-31T05:15:38.757Z,18.39
2022-10-31T05:18:07.067Z,18.36
2022-10-31T05:20:35.530Z,18.32
2022-10-31T05:23:03.605Z,18.27
2022-10-31T05:25:31.681Z,18.30
2022-10-31T05:28:00.269Z,18.26
2022-10-31T05:30:32.429Z,18.21
2022-10-31T05:33:00.995Z,18.20
2022-10-31T05:35:32.072Z,18.21
2022-10-31T05:38:00.921Z,18.20
2022-10-31T05:40:29.959Z,18.18
2022-10-31T05:43:00.830Z,18.16
2022-10-31T05:45:30.815Z,18.14
2022-10-31T05:48:01.316Z,18.14
2022-10-31T05:50:31.658Z,18.13
2022-10-31T05:53:01.839Z,18.16
2022-10-31T05:55:30.834Z,18.14
2022-10-31T05:57:59.923Z,18.18
2022-10-31T06:00:30.336Z,18.18
2022-10-31T06:03:02.352Z,18.17
2022-10-31T06:05:30.945Z,18.17
2022-10-31T06:08:00.251Z,18.19
2022-10-31T06:10:29.678Z,18.15
2022-10-31T06:12:57.987Z,18.15
2022-10-31T06:15:26.279Z,18.14
2022-10-31T06:18:04.082Z,18.09
2022-10-31T06:20:33.366Z,18.08
2022-10-31T06:23:02.260Z,18.06
2022-10-31T06:25:31.277Z,18.04
2022-10-31T06:27:59.792Z,18.06
2022-10-31T06:30:28.143Z,18.05
2022-10-31T06:32:56.382Z,18.07
2022-10-31T06:35:25.928Z,18.05
2022-10-31T06:37:55.020Z,18.02
2022-10-31T06:40:23.859Z,18.05
2022-10-31T06:42:58.946Z,18.04
2022-10-31T06:45:28.804Z,18.06
2022-10-31T06:48:16.087Z,18.07
2022-10-31T06:50:47.209Z,18.09
2022-10-31T06:53:16.113Z,18.09
2022-10-31T06:55:44.953Z,18.12
2022-10-31T06:58:13.556Z,18.15
2022-10-31T07:00:41.854Z,18.18
2022-10-31T07:03:13.407Z,18.22
2022-10-31T07:05:42.006Z,18.27
2022-10-31T07:08:13.437Z,18.27
2022-10-31T07:10:43.356Z,18.30
2022-10-31T07:13:13.786Z,18.33
2022-10-31T07:15:44.217Z,18.27
2022-10-31T07:18:14.963Z,18.26
2022-10-31T07:20:43.022Z,18.25
2022-10-31T07:23:13.323Z,18.23
2022-10-31T07:25:42.190Z,18.20
2022-10-31T07:28:10.993Z,18.20
2022-10-31T07:30:39.546Z,18.21
2022-10-31T07:33:08.503Z,18.16
2022-10-31T07:35:36.931Z,18.16
2022-10-31T07:38:15.194Z,18.11
2022-10-31T07:40:44.200Z,18.10
2022-10-31T07:43:14.497Z,18.13
2022-10-31T07:45:43.652Z,18.09
2022-10-31T07:48:12.095Z,18.09
2022-10-31T07:50:40.699Z,18.10
2022-10-31T07:53:13.177Z,18.11
2022-10-31T07:55:43.244Z,18.14
2022-10-31T07:58:12.641Z,18.18
2022-10-31T08:00:42.323Z,18.22
2022-10-31T11:02:36.254Z,21.18
2022-10-31T11:08:26.929Z,21.23
2022-10-31T14:30:56.882Z,21.08
2022-10-31T14:33:46.969Z,21.05
2022-10-31T14:36:32.945Z,21.02
2022-10-31T23:20:54.895Z,17.24
2022-10-31T23:27:13.283Z,17.46
2022-10-31T23:30:20.251Z,17.51
2022-10-31T23:33:07.153Z,17.43
2022-10-31T23:46:14.733Z,16.69
2022-10-31T23:48:58.502Z,16.45
